| time (UTC) | temp F | wind direction | speed MPH | gust MPH | rain 1hr in | rain 24hr in | rain mn in | humidity % | barometer mb |
| 20260504234507 | 65 | 40 | 20.0 | 28.0 | 0.00 | 0.00 | 0.00 | 36 | 1006.0 |
| 20260504234007 | 65 | 42 | 20.0 | 25.0 | 0.00 | 0.00 | 0.00 | 36 | 1006.2 |
| 20260504233507 | 65 | 41 | 17.0 | 25.0 | 0.00 | 0.00 | 0.00 | 36 | 1006.3 |
| 20260504233007 | 65 | 52 | 18.0 | 31.0 | 0.00 | 0.00 | 0.00 | 36 | 1006.2 |
| 20260504232506 | 65 | 42 | 21.0 | 31.0 | 0.00 | 0.00 | 0.00 | 35 | 1005.8 |
| 20260504232006 | 66 | 35 | 21.0 | 30.0 | 0.00 | 0.00 | 0.00 | 35 | 1005.6 |
| 20260504231507 | 66 | 36 | 17.0 | 32.0 | 0.00 | 0.00 | 0.00 | 35 | 1005.5 |
| 20260504231007 | 66 | 40 | 22.0 | 32.0 | 0.00 | 0.00 | 0.00 | 35 | 1005.4 |
| 20260504230508 | 67 | 40 | 20.0 | 29.0 | 0.00 | 0.00 | 0.00 | 34 | 1005.5 |
| 20260504225506 | 68 | 27 | 18.0 | 30.0 | 0.00 | 0.00 | 0.00 | 33 | 1005.2 |
| 20260504225007 | 67 | 36 | 20.0 | 30.0 | 0.00 | 0.00 | 0.00 | 33 | 1005.2 |
| 20260504224507 | 67 | 38 | 21.0 | 29.0 | 0.00 | 0.00 | 0.00 | 33 | 1005.2 |
| 20260504224006 | 68 | 40 | 20.0 | 29.0 | 0.00 | 0.00 | 0.00 | 33 | 1005.1 |
| 20260504223507 | 68 | 43 | 20.0 | 26.0 | 0.00 | 0.00 | 0.00 | 32 | 1004.8 |
| 20260504223007 | 69 | 43 | 18.0 | 26.0 | 0.00 | 0.00 | 0.00 | 32 | 1004.8 |
| 20260504222507 | 69 | 35 | 17.0 | 28.0 | 0.00 | 0.00 | 0.00 | 31 | 1004.7 |
| 20260504221506 | 69 | 24 | 20.0 | 33.0 | 0.00 | 0.00 | 0.00 | 30 | 1004.6 |
| 20260504220506 | 70 | 64 | 20.0 | 32.0 | 0.00 | 0.00 | 0.00 | 31 | 1004.5 |
| 20260504220008 | 70 | 53 | 23.0 | 31.0 | 0.00 | 0.00 | 0.00 | 30 | 1004.4 |
| 20260504215507 | 71 | 60 | 23.0 | 31.0 | 0.00 | 0.00 | 0.00 | 31 | 1004.4 |
| 20260504214506 | 70 | 50 | 26.0 | 36.0 | 0.00 | 0.00 | 0.00 | 30 | 1004.3 |
| 20260504214007 | 71 | 39 | 24.0 | 36.0 | 0.00 | 0.00 | 0.00 | 30 | 1004.2 |
| 20260504213507 | 72 | 19 | 25.0 | 32.0 | 0.00 | 0.00 | 0.00 | 29 | 1004.1 |
| 20260504213007 | 73 | 46 | 22.0 | 30.0 | 0.00 | 0.00 | 0.00 | 27 | 1004.2 |
| 20260504212007 | 74 | 48 | 18.0 | 32.0 | 0.00 | 0.00 | 0.00 | 28 | 1004.3 |
| 20260504211507 | 73 | 37 | 22.0 | 32.0 | 0.00 | 0.00 | 0.00 | 27 | 1004.3 |
| 20260504211006 | 75 | 52 | 18.0 | 29.0 | 0.00 | 0.00 | 0.00 | 29 | 1004.3 |
| 20260504210507 | 74 | 66 | 17.0 | 29.0 | 0.00 | 0.00 | 0.00 | 29 | 1004.4 |
| 20260504205007 | 73 | 17 | 24.0 | 32.0 | 0.00 | 0.00 | 0.00 | 29 | 1004.5 |
| 20260504204506 | 73 | 52 | 19.0 | 30.0 | 0.00 | 0.00 | 0.00 | 30 | 1004.5 |
| 20260504204007 | 75 | 45 | 20.0 | 26.0 | 0.00 | 0.00 | 0.00 | 27 | 1004.5 |
| 20260504203507 | 76 | 60 | 17.0 | 25.0 | 0.00 | 0.00 | 0.00 | 28 | 1004.5 |
| 20260504203007 | 74 | 55 | 16.0 | 26.0 | 0.00 | 0.00 | 0.00 | 29 | 1004.5 |
| 20260504202506 | 74 | 48 | 20.0 | 26.0 | 0.00 | 0.00 | 0.00 | 30 | 1004.4 |
| 20260504202007 | 74 | 57 | 19.0 | 25.0 | 0.00 | 0.00 | 0.00 | 28 | 1004.5 |
| 20260504201007 | 73 | 54 | 21.0 | 28.0 | 0.00 | 0.00 | 0.00 | 29 | 1004.5 |
| 20260504200007 | 74 | 59 | 22.0 | 30.0 | 0.00 | 0.00 | 0.00 | 28 | 1004.4 |
| 20260504195006 | 76 | 62 | 15.0 | 24.0 | 0.00 | 0.00 | 0.00 | 26 | 1004.4 |
| 20260504194006 | 77 | 27 | 5.0 | 14.0 | 0.00 | 0.00 | 0.00 | 18 | 1004.4 |
| 20260504193007 | 78 | 24 | 4.0 | 10.0 | 0.00 | 0.00 | 0.00 | 18 | 1004.5 |
| 20260504192506 | 78 | 274 | 6.0 | 10.0 | 0.00 | 0.00 | 0.00 | 18 | 1004.5 |
| 20260504192006 | 78 | 302 | 2.0 | 10.0 | 0.00 | 0.00 | 0.00 | 19 | 1004.6 |
| 20260504191507 | 77 | 185 | 3.0 | 12.0 | 0.00 | 0.00 | 0.00 | 18 | 1004.6 |
| 20260504191006 | 77 | 90 | 6.0 | 12.0 | 0.00 | 0.00 | 0.00 | 18 | 1004.7 |
| 20260504190006 | 78 | 74 | 3.0 | 7.0 | 0.00 | 0.00 | 0.00 | 17 | 1004.7 |
| 20260504185506 | 78 | 146 | 3.0 | 7.0 | 0.00 | 0.00 | 0.00 | 18 | 1004.7 |
| 20260504185006 | 77 | 113 | 1.0 | 7.0 | 0.00 | 0.00 | 0.00 | 18 | 1004.7 |
| 20260504184506 | 77 | 8 | 1.0 | 10.0 | 0.00 | 0.00 | 0.00 | 20 | 1004.8 |
| 20260504184006 | 77 | 89 | 3.0 | 10.0 | 0.00 | 0.00 | 0.00 | 18 | 1005.0 |
| 20260504183507 | 76 | 8 | 3.0 | 10.0 | 0.00 | 0.00 | 0.00 | 21 | 1005.0 |
| 20260504182506 | 76 | 5 | 6.0 | 12.0 | 0.00 | 0.00 | 0.00 | 19 | 1005.2 |
| 20260504182006 | 76 | 13 | 4.0 | 12.0 | 0.00 | 0.00 | 0.00 | 20 | 1005.2 |
| 20260504181506 | 76 | 332 | 4.0 | 9.0 | 0.00 | 0.00 | 0.00 | 22 | 1005.3 |
| 20260504181007 | 76 | 345 | 5.0 | 8.0 | 0.00 | 0.00 | 0.00 | 18 | 1005.4 |
| 20260504180505 | 77 | 349 | 5.0 | 8.0 | 0.00 | 0.00 | 0.00 | 19 | 1005.4 |
| 20260504180006 | 77 | 56 | 2.0 | 8.0 | 0.00 | 0.00 | 0.00 | 21 | 1005.5 |
| 20260504175506 | 77 | 155 | 6.0 | 9.0 | 0.00 | 0.00 | 0.00 | 20 | 1005.5 |
| 20260504175006 | 77 | 161 | 3.0 | 9.0 | 0.00 | 0.00 | 0.00 | 20 | 1005.7 |
| 20260504174506 | 77 | 162 | 5.0 | 10.0 | 0.00 | 0.00 | 0.00 | 21 | 1005.7 |
| 20260504174007 | 76 | 154 | 5.0 | 10.0 | 0.00 | 0.00 | 0.00 | 21 | 1005.8 |
| 20260504173506 | 76 | 186 | 6.0 | 10.0 | 0.00 | 0.00 | 0.00 | 24 | 1005.8 |
| 20260504173006 | 75 | 161 | 6.0 | 10.0 | 0.00 | 0.00 | 0.00 | 22 | 1005.8 |
| 20260504172006 | 75 | 144 | 5.0 | 9.0 | 0.00 | 0.00 | 0.00 | 21 | 1006.0 |
| 20260504171506 | 74 | 56 | 2.0 | 9.0 | 0.00 | 0.00 | 0.00 | 22 | 1006.0 |
| 20260504171005 | 74 | 53 | 6.0 | 9.0 | 0.00 | 0.00 | 0.00 | 23 | 1005.9 |
| 20260504170505 | 74 | 95 | 5.0 | 9.0 | 0.00 | 0.00 | 0.00 | 23 | 1005.9 |
| 20260504150506 | 63 | 339 | 3.0 | 7.0 | 0.00 | 0.00 | 0.00 | 46 | 1006.5 |
| 20260504141005 | 58 | 351 | 5.0 | 8.0 | 0.00 | 0.00 | 0.00 | 52 | 1006.7 |
| 20260504140506 | 58 | 342 | 6.0 | 8.0 | 0.00 | 0.00 | 0.00 | 52 | 1006.7 |
| 20260504130505 | 47 | 319 | 5.0 | 8.0 | 0.00 | 0.00 | 0.00 | 72 | 1006.6 |
| 20260504110504 | 38 | 291 | 7.0 | 8.0 | 0.00 | 0.00 | 0.00 | 84 | 1006.0 |
| 20260504100504 | 39 | 341 | 6.0 | 7.0 | 0.00 | 0.00 | 0.00 | 84 | 1006.3 |
| 20260504082004 | 42 | 315 | 8.0 | 9.0 | 0.00 | 0.00 | 0.00 | 77 | 1006.9 |
| 20260504081504 | 41 | 322 | 8.0 | 10.0 | 0.00 | 0.00 | 0.00 | 78 | 1007.0 |
| 20260504081004 | 42 | 314 | 9.0 | 10.0 | 0.00 | 0.00 | 0.00 | 78 | 1007.1 |
| 20260504080504 | 42 | 312 | 8.0 | 9.0 | 0.00 | 0.00 | 0.00 | 77 | 1007.1 |
| 20260504050508 | 48 | 349 | 7.0 | 10.0 | 0.00 | 0.00 | 0.00 | 70 | 1008.4 |
| 20260504045508 | 50 | 347 | 9.0 | 12.0 | 0.00 | 0.00 | 0.00 | 65 | 1008.6 |
| 20260504045008 | 50 | 8 | 9.0 | 12.0 | 0.00 | 0.00 | 0.00 | 66 | 1008.6 |
| 20260504044509 | 51 | 9 | 8.0 | 10.0 | 0.00 | 0.00 | 0.00 | 63 | 1008.6 |
| 20260504044008 | 52 | 192 | 8.0 | 8.0 | 0.00 | 0.00 | 0.00 | 59 | 1008.4 |
| 20260504043508 | 52 | 191 | 7.0 | 8.0 | 0.00 | 0.00 | 0.00 | 60 | 1008.5 |
| 20260504043009 | 51 | 194 | 6.0 | 7.0 | 0.00 | 0.00 | 0.00 | 62 | 1008.5 |
| 20260504042510 | 51 | 212 | 3.0 | 5.0 | 0.00 | 0.00 | 0.00 | 62 | 1008.6 |
| 20260504041508 | 53 | 203 | 1.0 | 3.0 | 0.00 | 0.00 | 0.00 | 58 | 1008.8 |
| 20260504040508 | 53 | 123 | 2.0 | 3.0 | 0.00 | 0.00 | 0.00 | 58 | 1008.6 |
| 20260504035509 | 52 | 118 | 3.0 | 3.0 | 0.00 | 0.00 | 0.00 | 60 | 1008.6 |
| 20260504034508 | 52 | 93 | 3.0 | 5.0 | 0.00 | 0.00 | 0.00 | 62 | 1008.6 |
| 20260504033508 | 53 | 65 | 4.0 | 5.0 | 0.00 | 0.00 | 0.00 | 58 | 1008.5 |
| 20260504033009 | 54 | 91 | 3.0 | 5.0 | 0.00 | 0.00 | 0.00 | 57 | 1008.4 |
| 20260504032009 | 54 | 95 | 3.0 | 3.0 | 0.00 | 0.00 | 0.00 | 56 | 1008.4 |
| 20260504031508 | 54 | 102 | 2.0 | 3.0 | 0.00 | 0.00 | 0.00 | 56 | 1008.5 |
| 20260504031010 | 54 | 99 | 2.0 | 2.0 | 0.00 | 0.00 | 0.00 | 55 | 1008.5 |
| 20260504030508 | 54 | 102 | 0.0 | 3.0 | 0.00 | 0.00 | 0.00 | 55 | 1008.5 |
| 20260504030008 | 54 | 95 | 2.0 | 3.0 | 0.00 | 0.00 | 0.00 | 55 | 1008.5 |
| 20260504025508 | 54 | 71 | 2.0 | 3.0 | 0.00 | 0.00 | 0.00 | 55 | 1008.3 |
| 20260504025008 | 55 | 66 | 1.0 | 3.0 | 0.00 | 0.00 | 0.00 | 53 | 1008.3 |
| 20260504024507 | 56 | 104 | 0.0 | 5.0 | 0.00 | 0.00 | 0.00 | 51 | 1008.2 |
| 20260504024008 | 57 | 117 | 1.0 | 7.0 | 0.00 | 0.00 | 0.00 | 50 | 1008.2 |
| 20260504023508 | 58 | 162 | 5.0 | 7.0 | 0.00 | 0.00 | 0.00 | 49 | 1008.2 |
| 20260504023008 | 59 | 161 | 5.0 | 6.0 | 0.00 | 0.00 | 0.00 | 48 | 1008.1 |
| 20260504022507 | 59 | 153 | 3.0 | 7.0 | 0.00 | 0.00 | 0.00 | 47 | 1008.1 |
| 20260504022008 | 60 | 148 | 4.0 | 7.0 | 0.00 | 0.00 | 0.00 | 47 | 1007.9 |
| 20260504021508 | 60 | 142 | 7.0 | 8.0 | 0.00 | 0.00 | 0.00 | 46 | 1007.9 |
| 20260504020008 | 61 | 131 | 7.0 | 9.0 | 0.00 | 0.00 | 0.00 | 43 | 1007.9 |
| 20260504015510 | 61 | 133 | 8.0 | 10.0 | 0.00 | 0.00 | 0.00 | 43 | 1007.9 |
| 20260504015008 | 62 | 135 | 9.0 | 12.0 | 0.00 | 0.00 | 0.00 | 44 | 1007.8 |
| 20260504014009 | 63 | 134 | 8.0 | 9.0 | 0.00 | 0.00 | 0.00 | 41 | 1007.9 |
| 20260504013508 | 64 | 123 | 7.0 | 10.0 | 0.00 | 0.00 | 0.00 | 40 | 1008.1 |
| 20260504013007 | 65 | 111 | 8.0 | 10.0 | 0.00 | 0.00 | 0.00 | 38 | 1008.1 |
| 20260504012508 | 66 | 109 | 6.0 | 9.0 | 0.00 | 0.00 | 0.00 | 37 | 1008.2 |
| 20260504012008 | 67 | 122 | 7.0 | 10.0 | 0.00 | 0.00 | 0.00 | 35 | 1008.2 |
| 20260504011507 | 67 | 113 | 8.0 | 10.0 | 0.00 | 0.00 | 0.00 | 34 | 1008.2 |
| 20260504011009 | 68 | 105 | 8.0 | 10.0 | 0.00 | 0.00 | 0.00 | 33 | 1008.2 |
| 20260504010508 | 68 | 113 | 6.0 | 9.0 | 0.00 | 0.00 | 0.00 | 32 | 1008.3 |
| 20260504010008 | 69 | 125 | 7.0 | 9.0 | 0.00 | 0.00 | 0.00 | 32 | 1008.3 |
| 20260504005507 | 70 | 120 | 6.0 | 8.0 | 0.00 | 0.00 | 0.00 | 30 | 1008.3 |
| 20260504005008 | 70 | 122 | 6.0 | 9.0 | 0.00 | 0.00 | 0.00 | 28 | 1008.3 |
| 20260504004507 | 70 | 114 | 6.0 | 9.0 | 0.00 | 0.00 | 0.00 | 29 | 1008.3 |
| 20260504004007 | 71 | 125 | 8.0 | 10.0 | 0.00 | 0.00 | 0.00 | 27 | 1008.3 |
| 20260504003508 | 71 | 113 | 8.0 | 12.0 | 0.00 | 0.00 | 0.00 | 28 | 1008.3 |
| 20260504003007 | 71 | 109 | 9.0 | 12.0 | 0.00 | 0.00 | 0.00 | 28 | 1008.3 |
| 20260504001008 | 72 | 111 | 7.0 | 10.0 | 0.00 | 0.00 | 0.00 | 25 | 1008.5 |
| 20260504000507 | 71 | 112 | 8.0 | 10.0 | 0.00 | 0.00 | 0.00 | 25 | 1008.5 |
| 20260504000008 | 72 | 100 | 7.0 | 10.0 | 0.00 | 0.00 | 0.00 | 26 | 1008.5 |
| 20260503235508 | 72 | 113 | 8.0 | 10.0 | 0.00 | 0.00 | 0.00 | 25 | 1008.8 |
| 20260503235008 | 72 | 132 | 7.0 | 10.0 | 0.00 | 0.00 | 0.00 | 25 | 1008.8 |